New Britain, Connecticut
Current Conditions -  °F | °C
As of 6:53 PM on Friday 21 Nov 2014 (Local Time) from KHFD Reporting Station
Clear Clear  
Wind Chill: -6°   Ceiling: Unl
Heat Index: -2°   Visibility: 10mi
Dew Point: -14°   Wind: 7mph
Humidity: 40%   Direction: 300°WNW
Pressure: 30.44"   Gusts: NA
Location:  41.67°N, 72.78°W
Report Text: KHFD 212353Z 30006KT 10SM CLR M02/M14 A3044 RMK AO2 SLP306 T10171139 10017 21017 51038
Loading
Personal Weather Stations






























Interactive Weather Map New forecast layout! Learn more

10-Day Weather Forecast

Advertisements
Track Severe Weather on mobile